createdAt,value
2022-12-14T00:00:08.817Z,98117.88
2022-12-14T00:02:35.444Z,98112.59
2022-12-14T00:05:02.186Z,98113.78
2022-12-14T00:07:29.267Z,98115.38
2022-12-14T00:09:55.757Z,98115.38
2022-12-14T00:12:23.670Z,98111.94
2022-12-14T00:14:50.173Z,98114.81
2022-12-14T00:17:16.881Z,98107.69
2022-12-14T00:19:43.426Z,98095.53
2022-12-14T00:22:15.406Z,98091.28
2022-12-14T00:24:41.921Z,98092.69
2022-12-14T00:27:08.472Z,98087.41
2022-12-14T00:29:36.539Z,98081.31
2022-12-14T00:32:03.576Z,98090.03
2022-12-14T00:34:30.106Z,98083.38
2022-12-14T00:36:56.646Z,98082.34
2022-12-14T00:39:23.475Z,98083.75
2022-12-14T00:41:50.018Z,98086.38
2022-12-14T00:44:16.711Z,98090.25
2022-12-14T00:46:44.709Z,98087.06
2022-12-14T00:49:11.336Z,98087.06
2022-12-14T00:51:37.897Z,98074.66
2022-12-14T00:54:04.628Z,98080.97
2022-12-14T00:56:31.326Z,98071.69
2022-12-14T00:58:57.825Z,98072.47
2022-12-14T01:01:24.765Z,98080.06
2022-12-14T01:03:52.952Z,98077.66
2022-12-14T01:06:22.018Z,98071.81
2022-12-14T01:08:49.470Z,98074.00
2022-12-14T01:11:16.244Z,98079.25
2022-12-14T01:13:42.784Z,98082.69
2022-12-14T01:16:11.779Z,98087.16
2022-12-14T01:18:39.741Z,98082.69
2022-12-14T01:21:16.312Z,98073.19
2022-12-14T01:23:43.775Z,98071.81
2022-12-14T01:26:10.812Z,98063.88
2022-12-14T01:28:37.962Z,98069.16
2022-12-14T01:31:06.697Z,98070.19
2022-12-14T01:33:33.261Z,98067.22
2022-12-14T01:36:04.510Z,98064.00
2022-12-14T01:38:32.458Z,98053.69
2022-12-14T01:40:59.223Z,98045.44
2022-12-14T01:43:44.665Z,98050.97
2022-12-14T01:46:20.291Z,98043.28
2022-12-14T01:48:49.779Z,98046.25
2022-12-14T01:51:16.371Z,98049.44
2022-12-14T01:53:44.882Z,98043.16
2022-12-14T01:56:11.454Z,98036.63
2022-12-14T01:58:38.027Z,98034.91
2022-12-14T02:01:04.802Z,98028.16
2022-12-14T02:03:34.432Z,98017.69
2022-12-14T02:06:04.390Z,98032.34
2022-12-14T02:08:31.363Z,98023.19
2022-12-14T02:11:00.122Z,98015.03
2022-12-14T02:13:31.118Z,98017.47
2022-12-14T02:15:58.034Z,98016.97
2022-12-14T02:18:27.651Z,98013.31
2022-12-14T02:21:17.330Z,97998.84
2022-12-14T02:24:02.543Z,97994.16
2022-12-14T02:26:55.079Z,97985.53
2022-12-14T02:29:41.617Z,97984.84
2022-12-14T02:32:19.918Z,97983.31
2022-12-14T02:34:56.164Z,97980.81
2022-12-14T02:37:29.247Z,97978.47
2022-12-14T02:40:05.433Z,97978.81
2022-12-14T02:42:41.226Z,97974.13
2022-12-14T02:45:17.487Z,97969.63
2022-12-14T02:47:53.652Z,97971.78
2022-12-14T02:50:25.038Z,97967.31
2022-12-14T02:53:01.460Z,97963.06
2022-12-14T02:55:32.416Z,97958.59
2022-12-14T02:58:01.843Z,97950.94
2022-12-14T03:00:33.805Z,97947.50
2022-12-14T03:03:02.129Z,97949.56
2022-12-14T03:05:29.027Z,97940.84
2022-12-14T03:07:57.645Z,97932.34
2022-12-14T03:10:33.410Z,97929.41
2022-12-14T03:13:06.742Z,97936.97
2022-12-14T03:15:37.681Z,97931.13
2022-12-14T03:18:07.121Z,97928.94
2022-12-14T03:20:37.083Z,97925.19
2022-12-14T03:23:08.240Z,97916.72
2022-12-14T03:25:40.258Z,97911.69
2022-12-14T03:28:13.731Z,97921.69
2022-12-14T03:30:59.984Z,97918.25
2022-12-14T03:33:29.434Z,97911.91
2022-12-14T03:36:00.706Z,97905.84
2022-12-14T03:38:33.854Z,97907.44
2022-12-14T03:41:11.073Z,97895.63
2022-12-14T03:43:44.008Z,97892.75
2022-12-14T03:46:29.609Z,97887.00
2022-12-14T03:49:04.846Z,97877.25
2022-12-14T03:51:39.039Z,97856.00
2022-12-14T03:54:15.197Z,97853.44
2022-12-14T03:56:52.608Z,97857.50
2022-12-14T03:59:25.615Z,97857.16
2022-12-14T04:02:03.900Z,97853.06
2022-12-14T04:04:36.010Z,97849.47
2022-12-14T04:07:11.655Z,97856.38
2022-12-14T04:09:46.202Z,97848.78
2022-12-14T04:12:16.181Z,97845.69
2022-12-14T04:14:46.970Z,97844.59
2022-12-14T04:17:19.845Z,97848.63
2022-12-14T04:19:52.277Z,97843.56
2022-12-14T04:22:23.671Z,97838.06
2022-12-14T04:24:56.551Z,97843.09
2022-12-14T04:27:31.877Z,97841.31
2022-12-14T04:30:01.292Z,97823.50
2022-12-14T04:32:35.633Z,97815.63
2022-12-14T04:35:09.482Z,97817.13
2022-12-14T04:37:39.119Z,97822.00
2022-12-14T04:40:10.998Z,97814.91
2022-12-14T04:42:44.205Z,97818.13
2022-12-14T04:45:15.718Z,97817.38
2022-12-14T04:47:49.510Z,97818.50
2022-12-14T04:50:25.640Z,97807.44
2022-12-14T04:52:58.012Z,97809.56
2022-12-14T04:55:31.466Z,97815.78
2022-12-14T04:58:03.711Z,97816.34
2022-12-14T05:00:35.276Z,97820.81
2022-12-14T05:03:18.020Z,97830.34
2022-12-14T05:05:54.821Z,97825.25
2022-12-14T05:08:33.894Z,97823.59
2022-12-14T05:11:39.595Z,97820.38
2022-12-14T05:13:53.605Z,97814.28
2022-12-14T05:16:22.849Z,97804.94
2022-12-14T05:18:50.905Z,97811.72
2022-12-14T05:21:17.573Z,97809.00
2022-12-14T05:23:44.218Z,97802.94
2022-12-14T05:26:10.729Z,97796.09
2022-12-14T05:28:37.262Z,97792.69
2022-12-14T05:31:03.896Z,97792.72
2022-12-14T05:33:30.696Z,97796.22
2022-12-14T05:35:58.815Z,97788.38
2022-12-14T05:38:25.555Z,97789.47
2022-12-14T05:40:52.276Z,97771.75
2022-12-14T05:43:18.842Z,97771.53
2022-12-14T05:45:45.573Z,97774.72
2022-12-14T05:48:12.155Z,97764.19
2022-12-14T05:50:38.733Z,97775.31
2022-12-14T05:53:06.757Z,97762.97
2022-12-14T05:55:33.345Z,97758.47
2022-12-14T05:58:00.075Z,97756.38
2022-12-14T06:00:26.663Z,97760.13
2022-12-14T06:02:54.935Z,97764.13
2022-12-14T06:05:21.609Z,97754.38
2022-12-14T06:07:48.174Z,97749.66
2022-12-14T06:10:17.334Z,97747.81
2022-12-14T06:12:43.875Z,97747.28
2022-12-14T06:15:10.915Z,97738.56
2022-12-14T06:17:42.224Z,97735.91
2022-12-14T06:20:10.086Z,97735.13
2022-12-14T06:22:36.633Z,97738.31
2022-12-14T06:25:03.769Z,97736.22
2022-12-14T06:27:31.787Z,97733.88
2022-12-14T06:29:58.390Z,97733.63
2022-12-14T06:32:24.927Z,97732.31
2022-12-14T06:34:51.638Z,97718.59
2022-12-14T06:37:18.879Z,97719.97
2022-12-14T06:39:46.485Z,97718.06
2022-12-14T06:42:19.212Z,97707.81
2022-12-14T06:44:47.059Z,97710.19
2022-12-14T06:47:13.726Z,97691.69
2022-12-14T06:49:40.279Z,97693.56
2022-12-14T06:52:06.958Z,97693.38
2022-12-14T06:54:33.591Z,97684.94
2022-12-14T06:57:00.163Z,97687.38
2022-12-14T06:59:26.984Z,97688.50
2022-12-14T07:01:55.059Z,97680.88
2022-12-14T07:04:21.881Z,97682.75
2022-12-14T07:06:48.548Z,97683.03
2022-12-14T07:09:15.066Z,97689.16
2022-12-14T07:11:41.944Z,97686.53
2022-12-14T07:14:13.883Z,97676.75
2022-12-14T07:16:42.588Z,97677.84
2022-12-14T07:19:11.780Z,97675.75
2022-12-14T07:21:38.496Z,97666.75
2022-12-14T07:24:05.369Z,97662.56
2022-12-14T07:26:31.906Z,97660.94
2022-12-14T07:28:59.868Z,97653.00
2022-12-14T07:31:28.207Z,97647.47
2022-12-14T07:33:57.048Z,97651.19
2022-12-14T07:36:26.915Z,97653.56
2022-12-14T07:38:54.834Z,97658.09
2022-12-14T07:41:23.508Z,97658.63
2022-12-14T07:43:51.216Z,97666.06
2022-12-14T07:46:19.511Z,97664.47
2022-12-14T07:48:47.778Z,97670.31
2022-12-14T07:51:17.077Z,97674.56
2022-12-14T07:53:45.515Z,97676.16
2022-12-14T07:56:14.352Z,97661.00
2022-12-14T07:58:41.518Z,97669.53
2022-12-14T08:01:10.398Z,97662.63
2022-12-14T08:03:37.067Z,97656.81
2022-12-14T08:06:05.205Z,97664.78
2022-12-14T08:08:31.766Z,97661.34
2022-12-14T08:10:59.968Z,97660.84
2022-12-14T08:13:26.980Z,97661.91
2022-12-14T08:15:54.253Z,97665.34
2022-12-14T08:18:20.796Z,97655.00
2022-12-14T08:20:53.079Z,97660.34
2022-12-14T08:23:20.040Z,97651.84
2022-12-14T08:25:52.772Z,97659.03
2022-12-14T08:28:20.745Z,97654.50
2022-12-14T08:30:47.640Z,97654.78
2022-12-14T08:33:14.334Z,97653.19
2022-12-14T08:35:40.969Z,97664.59
2022-12-14T08:38:07.684Z,97657.97
2022-12-14T08:40:35.093Z,97667.00
2022-12-14T08:43:01.668Z,97670.97
2022-12-14T08:45:29.585Z,97666.97
2022-12-14T08:47:57.181Z,97663.78
2022-12-14T08:50:23.903Z,97670.09
2022-12-14T08:52:50.502Z,97663.97
2022-12-14T08:55:18.196Z,97672.22
2022-12-14T08:57:46.557Z,97661.28
2022-12-14T09:00:14.252Z,97660.22
2022-12-14T09:02:42.350Z,97668.44
2022-12-14T09:05:09.348Z,97665.00
2022-12-14T09:07:35.979Z,97662.63
2022-12-14T09:10:02.631Z,97663.94
2022-12-14T09:12:29.269Z,97667.63
2022-12-14T09:14:56.005Z,97672.84
2022-12-14T09:17:22.611Z,97668.78
2022-12-14T09:19:50.711Z,97669.53
2022-12-14T09:22:17.341Z,97678.00
2022-12-14T09:24:43.920Z,97670.50
2022-12-14T09:27:10.548Z,97672.66
2022-12-14T09:29:37.141Z,97674.22
2022-12-14T09:32:04.004Z,97679.31
2022-12-14T09:34:30.579Z,97682.00
2022-12-14T09:36:58.543Z,97674.59
2022-12-14T09:39:25.151Z,97671.63
2022-12-14T09:42:02.237Z,97668.38
2022-12-14T09:44:42.159Z,97673.38
2022-12-14T09:47:15.436Z,97669.84
2022-12-14T09:49:46.001Z,97657.84
2022-12-14T09:52:21.871Z,97655.09
2022-12-14T09:54:49.828Z,97659.53
2022-12-14T09:57:27.549Z,97653.94
2022-12-14T09:59:54.738Z,97652.00
2022-12-14T10:02:34.884Z,97652.94
2022-12-14T10:05:17.989Z,97646.16
2022-12-14T10:07:54.941Z,97643.13
2022-12-14T10:10:25.415Z,97641.09
2022-12-14T10:13:03.048Z,97645.75
2022-12-14T10:15:36.442Z,97656.25
2022-12-14T10:18:58.238Z,97638.41
2022-12-14T10:21:21.694Z,97632.16
2022-12-14T10:23:54.428Z,97622.81
2022-12-14T10:26:26.234Z,97622.25
2022-12-14T10:29:01.489Z,97624.31
2022-12-14T10:31:33.482Z,97621.44
2022-12-14T10:34:12.180Z,97619.84
2022-12-14T10:36:54.553Z,97613.66
2022-12-14T10:39:34.186Z,97616.41
2022-12-14T10:42:06.980Z,97612.81
2022-12-14T10:44:43.167Z,97621.16
2022-12-14T10:47:24.743Z,97634.84
2022-12-14T10:49:58.891Z,97636.66
2022-12-14T10:52:30.832Z,97635.00
2022-12-14T10:55:02.940Z,97627.63
2022-12-14T10:57:29.488Z,97621.06
2022-12-14T11:00:08.565Z,97615.44
2022-12-14T11:02:39.647Z,97611.41
2022-12-14T11:05:19.331Z,97618.81
2022-12-14T11:07:46.120Z,97607.03
2022-12-14T11:10:16.947Z,97604.25
2022-12-14T11:12:56.997Z,97605.97
2022-12-14T11:15:27.438Z,97604.97
2022-12-14T11:18:01.681Z,97599.63
2022-12-14T11:20:28.706Z,97603.31
2022-12-14T11:22:57.258Z,97589.00
2022-12-14T11:25:35.151Z,97588.06
2022-12-14T11:28:05.924Z,97592.69
2022-12-14T11:30:32.623Z,97596.88
2022-12-14T11:32:59.454Z,97589.38
2022-12-14T11:35:26.027Z,97588.66
2022-12-14T11:37:59.124Z,97591.31
2022-12-14T11:40:27.493Z,97590.72
2022-12-14T11:43:01.409Z,97593.34
2022-12-14T11:45:30.596Z,97592.31
2022-12-14T11:48:17.183Z,97591.75
2022-12-14T11:50:46.109Z,97590.38
2022-12-14T11:53:14.089Z,97588.25
2022-12-14T11:55:45.403Z,97578.66
2022-12-14T11:58:18.523Z,97581.72
2022-12-14T12:00:49.460Z,97579.94
2022-12-14T12:03:21.952Z,97581.44
2022-12-14T12:05:49.495Z,97582.38
2022-12-14T12:08:20.489Z,97580.78
2022-12-14T12:10:50.715Z,97576.59
2022-12-14T12:13:24.633Z,97574.44
2022-12-14T12:15:55.344Z,97575.13
2022-12-14T12:18:27.177Z,97572.59
2022-12-14T12:20:58.046Z,97576.28
2022-12-14T12:23:32.782Z,97579.97
2022-12-14T12:26:05.036Z,97574.03
2022-12-14T12:28:36.508Z,97564.03
2022-12-14T12:31:11.119Z,97551.34
2022-12-14T12:33:46.631Z,97555.19
2022-12-14T12:36:23.337Z,97549.53
2022-12-14T12:39:00.619Z,97550.63
2022-12-14T12:41:34.629Z,97534.44
2022-12-14T12:44:18.695Z,97542.09
2022-12-14T12:47:23.501Z,97536.13
2022-12-14T12:49:46.255Z,97541.84
2022-12-14T12:52:21.637Z,97542.19
2022-12-14T12:54:56.360Z,97541.53
2022-12-14T12:57:25.077Z,97534.59
2022-12-14T12:59:55.693Z,97533.72
2022-12-14T13:02:31.213Z,97529.84
2022-12-14T13:05:22.056Z,97536.56
2022-12-14T13:07:51.655Z,97533.00
2022-12-14T13:10:21.179Z,97537.63
2022-12-14T13:12:50.265Z,97529.75
2022-12-14T13:15:24.106Z,97535.66
2022-12-14T13:17:55.094Z,97535.47
2022-12-14T13:20:25.334Z,97537.91
2022-12-14T13:22:52.889Z,97538.09
2022-12-14T13:25:25.644Z,97537.44
2022-12-14T13:28:10.236Z,97540.22
2022-12-14T13:30:52.907Z,97539.19
2022-12-14T13:33:39.589Z,97534.75
2022-12-14T13:36:45.154Z,97532.31
2022-12-14T13:39:44.432Z,97546.47
2022-12-14T13:42:29.134Z,97545.59
2022-12-14T13:44:57.724Z,97543.53
2022-12-14T13:47:29.905Z,97546.69
2022-12-14T13:52:48.891Z,97557.31
2022-12-14T13:55:25.628Z,97556.97
2022-12-14T13:57:53.407Z,97561.47
2022-12-14T14:00:55.752Z,97557.72
2022-12-14T14:03:44.543Z,97563.47
2022-12-14T14:06:32.683Z,97558.75
2022-12-14T14:08:59.407Z,97566.88
2022-12-14T14:11:44.698Z,97564.09
2022-12-14T14:14:35.074Z,97566.09
2022-12-14T14:17:08.428Z,97566.56
2022-12-14T14:19:40.915Z,97573.44
2022-12-14T14:22:23.283Z,97578.06
2022-12-14T14:24:59.257Z,97585.34
2022-12-14T14:27:29.167Z,97577.97
2022-12-14T14:29:57.011Z,97576.50
2022-12-14T14:32:38.787Z,97584.31
2022-12-14T14:35:09.093Z,97591.81
2022-12-14T14:37:38.257Z,97586.81
2022-12-14T14:40:37.928Z,97585.53
2022-12-14T14:43:24.711Z,97579.75
2022-12-14T14:45:54.441Z,97585.94
2022-12-14T14:48:28.176Z,97590.53
2022-12-14T14:51:06.356Z,97591.34
2022-12-14T14:53:34.645Z,97592.19
2022-12-14T14:56:42.741Z,97590.63
2022-12-14T14:59:38.756Z,97605.06
2022-12-14T15:02:28.649Z,97597.66
2022-12-14T15:04:57.116Z,97607.28
2022-12-14T15:07:28.557Z,97605.72
2022-12-14T15:10:01.609Z,97610.00
2022-12-14T15:12:33.646Z,97611.13
2022-12-14T15:15:02.387Z,97617.81
2022-12-14T15:17:28.946Z,97620.75
2022-12-14T15:19:56.752Z,97623.16
2022-12-14T15:22:27.577Z,97625.03
2022-12-14T15:24:56.466Z,97627.19
2022-12-14T15:27:26.695Z,97624.53
2022-12-14T15:29:56.642Z,97634.06
2022-12-14T15:32:24.708Z,97638.31
2022-12-14T15:34:55.409Z,97635.41
2022-12-14T15:37:29.898Z,97634.88
2022-12-14T15:40:02.079Z,97638.03
2022-12-14T15:42:28.657Z,97641.22
2022-12-14T15:44:56.428Z,97653.91
2022-12-14T15:47:26.457Z,97645.44
2022-12-14T15:49:59.228Z,97650.97
2022-12-14T15:52:30.577Z,97651.75
2022-12-14T15:54:59.365Z,97659.19
2022-12-14T15:57:26.117Z,97648.00
2022-12-14T15:59:56.054Z,97647.72
2022-12-14T16:02:27.735Z,97656.72
2022-12-14T16:04:55.844Z,97654.03
2022-12-14T16:07:26.945Z,97663.00
2022-12-14T16:09:59.111Z,97664.00
2022-12-14T16:12:32.113Z,97659.75
2022-12-14T16:15:00.480Z,97674.81
2022-12-14T16:17:30.404Z,97672.66
2022-12-14T16:20:00.792Z,97671.00
2022-12-14T16:22:29.244Z,97678.13
2022-12-14T16:25:16.072Z,97676.22
2022-12-14T16:27:49.747Z,97671.94
2022-12-14T16:30:20.663Z,97666.06
2022-12-14T16:32:50.311Z,97672.38
2022-12-14T16:35:20.701Z,97677.66
2022-12-14T16:37:50.474Z,97677.06
2022-12-14T16:40:33.574Z,97671.22
2022-12-14T16:43:00.733Z,97678.53
2022-12-14T16:46:07.286Z,97681.38
2022-12-14T16:48:40.084Z,97678.16
2022-12-14T16:51:50.785Z,97673.84
2022-12-14T16:54:25.319Z,97678.28
2022-12-14T16:56:58.070Z,97689.09
2022-12-14T16:59:28.045Z,97684.00
2022-12-14T17:01:55.678Z,97685.53
2022-12-14T17:04:22.671Z,97683.63
2022-12-14T17:06:51.436Z,97690.22
2022-12-14T17:09:20.606Z,97698.66
2022-12-14T17:11:48.434Z,97702.06
2022-12-14T17:14:17.832Z,97701.97
2022-12-14T17:16:46.746Z,97709.34
2022-12-14T17:19:25.984Z,97703.78
2022-12-14T17:21:52.543Z,97711.94
2022-12-14T17:24:22.156Z,97701.84
2022-12-14T17:26:50.683Z,97712.94
2022-12-14T17:29:24.442Z,97715.81
2022-12-14T17:31:54.558Z,97710.78
2022-12-14T17:34:21.324Z,97705.97
2022-12-14T17:36:48.002Z,97709.94
2022-12-14T17:39:14.565Z,97708.31
2022-12-14T17:41:45.304Z,97709.38
2022-12-14T17:44:14.238Z,97721.53
2022-12-14T17:46:43.226Z,97724.16
2022-12-14T17:49:12.253Z,97720.16
2022-12-14T17:51:40.471Z,97728.03
2022-12-14T17:54:12.077Z,97730.34
2022-12-14T17:56:38.660Z,97719.41
2022-12-14T17:59:05.203Z,97718.06
2022-12-14T18:01:32.172Z,97711.41
2022-12-14T18:04:00.469Z,97719.06
2022-12-14T18:06:27.162Z,97714.28
2022-12-14T18:08:53.821Z,97721.34
2022-12-14T18:11:22.922Z,97728.94
2022-12-14T18:13:49.960Z,97731.34
2022-12-14T18:16:19.440Z,97730.53
2022-12-14T18:18:46.436Z,97742.44
2022-12-14T18:21:19.629Z,97747.22
2022-12-14T18:23:47.259Z,97747.97
2022-12-14T18:26:16.711Z,97748.44
2022-12-14T18:28:43.320Z,97739.97
2022-12-14T18:31:19.619Z,97744.38
2022-12-14T18:33:47.498Z,97744.31
2022-12-14T18:36:14.223Z,97751.09
2022-12-14T18:38:42.287Z,97748.41
2022-12-14T18:41:08.841Z,97745.66
2022-12-14T18:43:40.169Z,97745.84
2022-12-14T18:46:09.991Z,97752.88
2022-12-14T18:48:36.917Z,97746.47
2022-12-14T18:51:04.208Z,97759.31
2022-12-14T18:53:31.109Z,97750.88
2022-12-14T18:56:08.067Z,97749.75
2022-12-14T18:58:34.798Z,97754.44
2022-12-14T19:01:01.734Z,97752.31
2022-12-14T19:03:31.623Z,97761.47
2022-12-14T19:06:42.204Z,97765.16
2022-12-14T19:08:53.827Z,97766.66
2022-12-14T19:11:28.735Z,97760.84
2022-12-14T19:13:55.404Z,97760.50
2022-12-14T19:16:22.094Z,97760.16
2022-12-14T19:18:48.831Z,97769.59
2022-12-14T19:21:15.451Z,97775.56
2022-12-14T19:23:43.345Z,97777.66
2022-12-14T19:26:10.160Z,97771.25
2022-12-14T19:28:38.097Z,97780.19
2022-12-14T19:31:05.278Z,97788.00
2022-12-14T19:33:32.487Z,97786.41
2022-12-14T19:35:59.504Z,97793.75
2022-12-14T19:38:26.083Z,97793.97
2022-12-14T19:41:00.541Z,97787.81
2022-12-14T19:43:28.411Z,97786.78
2022-12-14T19:45:56.863Z,97790.44
2022-12-14T19:48:23.708Z,97787.25
2022-12-14T19:50:50.757Z,97789.53
2022-12-14T19:53:21.611Z,97802.16
2022-12-14T19:55:51.544Z,97800.00
2022-12-14T19:58:18.604Z,97802.06
2022-12-14T20:00:45.257Z,97798.28
2022-12-14T20:03:13.493Z,97802.41
2022-12-14T20:05:40.265Z,97801.38
2022-12-14T20:08:06.834Z,97800.81
2022-12-14T20:10:33.414Z,97804.03
2022-12-14T20:12:59.997Z,97810.97
2022-12-14T20:15:26.600Z,97820.50
2022-12-14T20:17:53.125Z,97821.06
2022-12-14T20:20:22.875Z,97821.88
2022-12-14T20:22:49.692Z,97826.78
2022-12-14T20:25:16.363Z,97820.41
2022-12-14T20:27:42.935Z,97832.19
2022-12-14T20:30:10.714Z,97832.66
2022-12-14T20:32:37.279Z,97831.75
2022-12-14T20:35:04.341Z,97845.50
2022-12-14T20:37:32.283Z,97842.63
2022-12-14T20:39:58.850Z,97847.41
2022-12-14T20:42:25.371Z,97845.00
2022-12-14T20:44:52.029Z,97851.34
2022-12-14T20:47:18.586Z,97847.09
2022-12-14T20:49:45.170Z,97855.22
2022-12-14T20:52:11.764Z,97855.69
2022-12-14T20:54:39.669Z,97854.56
2022-12-14T20:57:06.235Z,97862.69
2022-12-14T20:59:32.958Z,97867.38
2022-12-14T21:01:59.976Z,97875.72
2022-12-14T21:04:26.717Z,97870.13
2022-12-14T21:06:53.508Z,97871.81
2022-12-14T21:09:20.238Z,97871.72
2022-12-14T21:11:49.878Z,97876.19
2022-12-14T21:14:16.948Z,97872.41
2022-12-14T21:16:43.553Z,97875.84
2022-12-14T21:19:12.253Z,97878.47
2022-12-14T21:21:38.840Z,97873.69
2022-12-14T21:24:07.315Z,97872.06
2022-12-14T21:26:33.960Z,97875.94
2022-12-14T21:29:01.984Z,97871.50
2022-12-14T21:31:28.593Z,97871.72
2022-12-14T21:33:55.205Z,97876.44
2022-12-14T21:36:22.101Z,97875.06
2022-12-14T21:38:48.640Z,97882.38
2022-12-14T21:41:15.203Z,97877.34
2022-12-14T21:43:41.759Z,97883.63
2022-12-14T21:46:10.016Z,97884.66
2022-12-14T21:48:36.625Z,97889.13
2022-12-14T21:51:05.922Z,97893.03
2022-12-14T21:53:35.462Z,97897.50
2022-12-14T21:56:02.960Z,97896.47
2022-12-14T21:58:29.544Z,97896.91
2022-12-14T22:00:56.315Z,97910.06
2022-12-14T22:03:24.326Z,97905.81
2022-12-14T22:05:50.893Z,97913.94
2022-12-14T22:08:17.624Z,97914.16
2022-12-14T22:10:44.176Z,97911.63
2022-12-14T22:13:10.712Z,97910.50
2022-12-14T22:15:37.230Z,97923.28
2022-12-14T22:18:03.984Z,97928.19
2022-12-14T22:20:31.994Z,97930.25
2022-12-14T22:22:58.596Z,97928.88
2022-12-14T22:25:25.278Z,97925.22
2022-12-14T22:27:51.840Z,97919.16
2022-12-14T22:30:18.440Z,97923.03
2022-12-14T22:32:45.086Z,97918.78
2022-12-14T22:35:11.601Z,97915.16
2022-12-14T22:37:39.538Z,97912.72
2022-12-14T22:40:07.479Z,97911.13
2022-12-14T22:42:34.277Z,97912.16
2022-12-14T22:45:00.996Z,97911.59
2022-12-14T22:47:28.375Z,97911.59
2022-12-14T22:49:55.127Z,97903.13
2022-12-14T22:52:24.899Z,97908.38
2022-12-14T22:54:53.425Z,97904.38
2022-12-14T22:57:21.461Z,97909.41
2022-12-14T22:59:54.015Z,97905.97
2022-12-14T23:02:20.970Z,97902.44
2022-12-14T23:04:49.968Z,97893.88
2022-12-14T23:07:17.543Z,97898.69
2022-12-14T23:09:44.569Z,97896.84
2022-12-14T23:12:13.398Z,97906.81
2022-12-14T23:14:40.161Z,97908.63
2022-12-14T23:17:06.992Z,97903.50
2022-12-14T23:19:33.564Z,97906.72
2022-12-14T23:22:00.251Z,97897.00
2022-12-14T23:24:26.799Z,97904.44
2022-12-14T23:26:53.382Z,97918.03
2022-12-14T23:29:21.294Z,97921.31
2022-12-14T23:31:47.837Z,97920.41
2022-12-14T23:34:14.721Z,97925.66
2022-12-14T23:36:41.241Z,97924.28
2022-12-14T23:39:07.759Z,97930.34
2022-12-14T23:41:34.298Z,97925.75
2022-12-14T23:44:00.802Z,97925.19
2022-12-14T23:46:29.265Z,97925.84
2022-12-14T23:48:55.840Z,97932.94
2022-12-14T23:51:22.399Z,97927.31
2022-12-14T23:53:50.008Z,97935.00
2022-12-14T23:56:17.009Z,97931.56
2022-12-14T23:58:43.585Z,97933.97
